Time;durP1;ratioP1;P1;durP2;ratioP2;P2;SDS_P1;SDS_P2;PMS_P1;PMS_P2;Temp;Humidity;BMP_temperature;BMP_pressure;BME280_temperature;BME280_humidity;BME280_pressure;Samples;Min_cycle;Max_cycle;Signal;HPM_P1;HPM_P2
2023/05/22 00:00:30;;;;;;;;;;;;;;;-142.75;100.00;76737.63;5087594;28;20318;-65
2023/05/22 00:02:56;;;;;;;;;;;;;;;-142.75;100.00;76739.59;5087047;28;19927;-67
2023/05/22 00:05:21;;;;;;;;;;;;;;;-142.75;100.00;76745.50;5093939;28;19939;-65
2023/05/22 00:07:46;;;;;;;;;;;;;;;-142.75;100.00;76745.50;5094454;28;19928;-66
2023/05/22 00:10:12;;;;;;;;;;;;;;;-142.75;100.00;76759.28;5089492;28;19938;-65
2023/05/22 00:12:37;;;;;;;;;;;;;;;-142.75;100.00;76761.25;5088154;28;19916;-69
2023/05/22 00:15:03;;;;;;;;;;;;;;;-142.75;100.00;76767.16;5089549;28;19966;-65
2023/05/22 00:17:29;;;;;;;;;;;;;;;-142.75;100.00;76755.34;5087828;28;20302;-65
2023/05/22 00:19:55;;;;;;;;;;;;;;;-142.75;100.00;76751.41;5088240;28;19916;-66
2023/05/22 00:22:20;;;;;;;;;;;;;;;-142.75;100.00;76759.28;5088188;28;20333;-66
2023/05/22 00:24:45;;;;;;;;;;;;;;;-142.75;100.00;76771.09;5088127;28;19920;-66
2023/05/22 00:27:11;;;;;;;;;;;;;;;-142.75;100.00;76765.19;5087807;28;20017;-67
2023/05/22 00:29:36;;;;;;;;;;;;;;;-142.75;100.00;76780.94;5092319;28;20387;-68
2023/05/22 00:32:01;;;;;;;;;;;;;;;-142.75;100.00;76775.03;5086335;28;20314;-67
2023/05/22 00:34:26;;;;;;;;;;;;;;;-142.75;100.00;76773.06;5095061;28;19965;-69
2023/05/22 00:36:51;;;;;;;;;;;;;;;-142.75;100.00;76765.19;5089724;28;20147;-66
2023/05/22 00:39:17;;;;;;;;;;;;;;;-142.75;100.00;76778.97;5088788;28;19916;-67
2023/05/22 00:41:42;;;;;;;;;;;;;;;-142.75;100.00;76771.09;5089057;28;19923;-66
2023/05/22 00:44:09;;;;;;;;;;;;;;;-142.75;100.00;76767.16;5088224;28;19955;-66
2023/05/22 00:46:34;;;;;;;;;;;;;;;-142.75;100.00;76769.13;5089382;28;19924;-65
2023/05/22 00:48:59;;;;;;;;;;;;;;;-142.75;100.00;76765.19;5087894;28;19928;-64
2023/05/22 00:51:25;;;;;;;;;;;;;;;-142.75;100.00;76757.31;5087944;28;19941;-66
2023/05/22 00:53:50;;;;;;;;;;;;;;;-142.75;100.00;76761.25;5086076;28;19923;-65
2023/05/22 00:56:17;;;;;;;;;;;;;;;-142.75;100.00;76749.44;5087336;28;19935;-66
2023/05/22 00:58:42;;;;;;;;;;;;;;;-142.75;100.00;76747.47;5087368;28;20386;-66
2023/05/22 01:01:10;;;;;;;;;;;;;;;-142.75;100.00;76759.28;5085977;28;19916;-65
2023/05/22 01:03:36;;;;;;;;;;;;;;;-142.75;100.00;76761.25;5086073;28;19922;-66
2023/05/22 01:06:01;;;;;;;;;;;;;;;-142.75;100.00;76749.44;5087223;28;19920;-65
2023/05/22 01:08:27;;;;;;;;;;;;;;;-142.75;100.00;76741.56;5088991;28;19920;-66
2023/05/22 01:11:13;;;;;;;;;;;;;;;-142.75;100.00;76743.53;5092654;28;19916;-66
2023/05/22 01:13:57;;;;;;;;;;;;;;;-142.75;100.00;76731.72;5088562;28;19923;-65
2023/05/22 01:16:31;;;;;;;;;;;;;;;-142.75;100.00;76721.88;5085739;28;20504;-66
2023/05/22 01:18:56;;;;;;;;;;;;;;;-142.75;100.00;76715.97;5090521;28;19959;-67
2023/05/22 01:21:33;;;;;;;;;;;;;;;-142.75;100.00;76721.88;5087387;28;20009;-67
2023/05/22 01:23:58;;;;;;;;;;;;;;;-142.75;100.00;76717.94;5088507;28;19916;-63
2023/05/22 01:26:24;;;;;;;;;;;;;;;-142.75;100.00;76708.09;5087116;28;19927;-66
2023/05/22 01:28:50;;;;;;;;;;;;;;;-142.75;100.00;76692.34;5086962;28;19947;-66
2023/05/22 01:31:16;;;;;;;;;;;;;;;-142.75;100.00;76710.06;5085778;28;20362;-66
2023/05/22 01:33:46;;;;;;;;;;;;;;;-142.75;100.00;76712.03;5087150;28;19916;-66
2023/05/22 01:36:13;;;;;;;;;;;;;;;-142.75;100.00;76733.69;5085923;28;19916;-66
2023/05/22 01:38:40;;;;;;;;;;;;;;;-142.75;100.00;76727.78;5085763;28;19923;-66
2023/05/22 01:41:06;;;;;;;;;;;;;;;-142.75;100.00;76727.78;5086274;28;20291;-66
2023/05/22 01:43:31;;;;;;;;;;;;;;;-142.75;100.00;76723.84;5085792;28;19928;-65
2023/05/22 01:45:56;;;;;;;;;;;;;;;-142.75;100.00;76731.72;5089927;28;20357;-66
2023/05/22 01:48:21;;;;;;;;;;;;;;;-142.75;100.00;76706.13;5094382;28;20475;-66
2023/05/22 01:50:50;;;;;;;;;;;;;;;-142.75;100.00;76710.06;5088341;28;19961;-67
2023/05/22 01:53:15;;;;;;;;;;;;;;;-142.75;100.00;76704.16;5086574;28;19916;-67
2023/05/22 01:55:46;;;;;;;;;;;;;;;-142.75;100.00;76702.19;5086873;28;19927;-67
2023/05/22 01:58:14;;;;;;;;;;;;;;;-142.75;100.00;76712.03;5085443;28;19923;-66
2023/05/22 02:00:42;;;;;;;;;;;;;;;-142.75;100.00;76700.22;5086790;28;19916;-66
2023/05/22 02:03:11;;;;;;;;;;;;;;;-142.75;100.00;76690.38;5088920;28;20425;-66
2023/05/22 02:05:37;;;;;;;;;;;;;;;-142.75;100.00;76688.41;5091534;28;19923;-67
2023/05/22 02:08:03;;;;;;;;;;;;;;;-142.75;100.00;76688.41;5086582;28;19978;-66
2023/05/22 02:10:30;;;;;;;;;;;;;;;-142.75;100.00;76676.59;5086884;28;20272;-67
2023/05/22 02:12:55;;;;;;;;;;;;;;;-142.75;100.00;76684.47;5085477;28;19923;-66
2023/05/22 02:15:21;;;;;;;;;;;;;;;-142.75;100.00;76682.50;5086711;28;19916;-68
2023/05/22 02:17:48;;;;;;;;;;;;;;;-142.75;100.00;76678.56;5086707;28;20497;-66
2023/05/22 02:20:14;;;;;;;;;;;;;;;-142.75;100.00;76674.63;5094863;28;19916;-66
2023/05/22 02:22:43;;;;;;;;;;;;;;;-142.75;100.00;76672.66;5086574;28;19927;-67
2023/05/22 02:25:13;;;;;;;;;;;;;;;-142.75;100.00;76672.66;5088806;28;20407;-66
2023/05/22 02:27:38;;;;;;;;;;;;;;;-142.75;100.00;76660.84;5087152;28;19916;-66
2023/05/22 02:30:04;;;;;;;;;;;;;;;-142.75;100.00;76658.88;5087978;28;19922;-66
2023/05/22 02:32:30;;;;;;;;;;;;;;;-142.75;100.00;76672.66;5095169;28;19963;-68
2023/05/22 02:34:57;;;;;;;;;;;;;;;-142.75;100.00;76660.84;5090113;28;19920;-66
2023/05/22 02:37:22;;;;;;;;;;;;;;;-142.75;100.00;76670.69;5088892;28;19977;-66
2023/05/22 02:39:47;;;;;;;;;;;;;;;-142.75;100.00;76670.69;5090187;28;19923;-66
2023/05/22 02:42:13;;;;;;;;;;;;;;;-142.75;100.00;76660.84;5089984;28;19954;-66
2023/05/22 02:44:38;;;;;;;;;;;;;;;-142.75;100.00;76672.66;5088502;28;19966;-67
2023/05/22 02:47:03;;;;;;;;;;;;;;;-142.75;100.00;76680.53;5092383;28;20562;-66
2023/05/22 02:49:28;;;;;;;;;;;;;;;-142.75;100.00;76652.97;5089638;28;19920;-65
2023/05/22 02:51:53;;;;;;;;;;;;;;;-142.75;100.00;76676.59;5096864;28;19916;-67
2023/05/22 02:54:19;;;;;;;;;;;;;;;-142.75;100.00;76684.47;5095774;28;19941;-67
2023/05/22 02:56:44;;;;;;;;;;;;;;;-142.75;100.00;76682.50;5088224;28;19916;-66
2023/05/22 02:59:10;;;;;;;;;;;;;;;-142.75;100.00;76692.34;5088508;28;19923;-66
2023/05/22 03:01:35;;;;;;;;;;;;;;;-142.75;100.00;76688.41;5089657;28;19924;-69
2023/05/22 03:04:00;;;;;;;;;;;;;;;-142.75;100.00;76696.28;5090591;28;20024;-66
2023/05/22 03:06:25;;;;;;;;;;;;;;;-142.75;100.00;76690.38;5088681;28;19929;-68
2023/05/22 03:08:51;;;;;;;;;;;;;;;-142.75;100.00;76696.28;5089373;28;19920;-66
2023/05/22 03:11:17;;;;;;;;;;;;;;;-142.75;100.00;76721.88;5097873;28;20006;-66
2023/05/22 03:13:42;;;;;;;;;;;;;;;-142.75;100.00;76719.91;5089341;28;20037;-68
2023/05/22 03:16:07;;;;;;;;;;;;;;;-142.75;100.00;76714.00;5094627;28;19984;-65
2023/05/22 03:18:32;;;;;;;;;;;;;;;-142.75;100.00;76719.91;5095487;28;20299;-66
2023/05/22 03:20:58;;;;;;;;;;;;;;;-142.75;100.00;76719.91;5088018;28;20310;-63
2023/05/22 03:23:24;;;;;;;;;;;;;;;-142.75;100.00;76723.84;5091451;28;19942;-66
2023/05/22 03:25:50;;;;;;;;;;;;;;;-142.75;100.00;76715.97;5092720;28;19916;-66
2023/05/22 03:28:15;;;;;;;;;;;;;;;-142.75;100.00;76727.78;5089411;28;20452;-65
2023/05/22 03:30:40;;;;;;;;;;;;;;;-142.75;100.00;76715.97;5101417;28;19920;-66
2023/05/22 03:33:05;;;;;;;;;;;;;;;-142.75;100.00;76715.97;5089048;28;20007;-65
2023/05/22 03:35:30;;;;;;;;;;;;;;;-142.75;100.00;76714.00;5087450;28;20379;-67
2023/05/22 03:37:56;;;;;;;;;;;;;;;-142.75;100.00;76698.25;5097354;28;19916;-65
2023/05/22 03:40:21;;;;;;;;;;;;;;;-142.75;100.00;76712.03;5090401;28;19952;-65
2023/05/22 03:42:48;;;;;;;;;;;;;;;-142.75;100.00;76694.31;5090547;28;20394;-66
2023/05/22 03:45:13;;;;;;;;;;;;;;;-142.75;100.00;76694.31;5088544;28;20015;-66
2023/05/22 03:47:38;;;;;;;;;;;;;;;-142.75;100.00;76680.53;5088455;28;20015;-65
2023/05/22 03:50:03;;;;;;;;;;;;;;;-142.75;100.00;76680.53;5088714;28;20504;-64
2023/05/22 03:52:29;;;;;;;;;;;;;;;-142.75;100.00;76674.63;5088751;28;20482;-65
2023/05/22 03:54:54;;;;;;;;;;;;;;;-142.75;100.00;76672.66;5090094;28;20434;-67
2023/05/22 03:57:19;;;;;;;;;;;;;;;-142.75;100.00;76676.59;5091611;28;19963;-66
2023/05/22 03:59:45;;;;;;;;;;;;;;;-142.75;100.00;76684.47;5088628;28;20014;-66
2023/05/22 04:02:11;;;;;;;;;;;;;;;-142.75;100.00;76676.59;5088814;28;19916;-66
2023/05/22 04:04:37;;;;;;;;;;;;;;;-142.75;100.00;76660.84;5095599;28;20007;-68
2023/05/22 04:07:02;;;;;;;;;;;;;;;-142.75;100.00;76686.44;5092324;28;20559;-66
2023/05/22 04:09:30;;;;;;;;;;;;;;;-142.75;100.00;76668.72;5092188;28;19920;-65
2023/05/22 04:11:55;;;;;;;;;;;;;;;-142.75;100.00;76672.66;5088379;28;20010;-68
2023/05/22 04:14:20;;;;;;;;;;;;;;;-142.75;100.00;76658.88;5086835;28;20072;-66
2023/05/22 04:16:46;;;;;;;;;;;;;;;-142.75;100.00;76651.00;5087773;28;20436;-65
2023/05/22 04:19:12;;;;;;;;;;;;;;;-142.75;100.00;76649.03;5088158;28;20411;-65
2023/05/22 04:21:38;;;;;;;;;;;;;;;-142.75;100.00;76645.09;5088099;28;19923;-68
2023/05/22 04:24:05;;;;;;;;;;;;;;;-142.75;100.00;76649.03;5095395;28;20291;-66
2023/05/22 04:26:31;;;;;;;;;;;;;;;-142.75;100.00;76645.09;5086930;28;19916;-66
2023/05/22 04:28:56;;;;;;;;;;;;;;;-142.75;100.00;76637.22;5093338;28;20379;-66
2023/05/22 04:31:21;;;;;;;;;;;;;;;-142.75;100.00;76658.88;5095329;28;19923;-67
2023/05/22 04:33:47;;;;;;;;;;;;;;;-142.75;100.00;76643.13;5090179;28;19946;-66
2023/05/22 04:36:12;;;;;;;;;;;;;;;-142.75;100.00;76637.22;5087539;28;19973;-65
2023/05/22 04:38:37;;;;;;;;;;;;;;;-142.75;100.00;76633.28;5086830;28;19916;-66
2023/05/22 04:41:02;;;;;;;;;;;;;;;-142.75;100.00;76629.34;5088760;28;20002;-66
2023/05/22 04:43:28;;;;;;;;;;;;;;;-142.75;100.00;76619.50;5087535;28;19916;-65
2023/05/22 04:45:55;;;;;;;;;;;;;;;-142.75;100.00;76613.59;5089635;28;19960;-68
2023/05/22 04:48:21;;;;;;;;;;;;;;;-142.75;100.00;76613.59;5087222;28;19920;-65
2023/05/22 04:50:47;;;;;;;;;;;;;;;-142.75;100.00;76613.59;5085891;28;19965;-65
2023/05/22 04:53:12;;;;;;;;;;;;;;;-142.75;100.00;76605.72;5086261;28;19916;-65
2023/05/22 04:55:38;;;;;;;;;;;;;;;-142.75;100.00;76605.72;5083347;28;19916;-68
2023/05/22 04:58:04;;;;;;;;;;;;;;;-142.75;100.00;76611.63;5088455;28;19916;-65
2023/05/22 05:00:29;;;;;;;;;;;;;;;-142.75;100.00;76609.66;5085687;28;19916;-66
2023/05/22 05:02:56;;;;;;;;;;;;;;;-142.75;100.00;76597.84;5089857;28;20608;-67
2023/05/22 05:05:21;;;;;;;;;;;;;;;-142.75;100.00;76609.66;5087358;28;19917;-67
2023/05/22 05:07:48;;;;;;;;;;;;;;;-142.75;100.00;76629.34;5087028;28;19924;-68
2023/05/22 05:10:13;;;;;;;;;;;;;;;-142.75;100.00;76609.66;5092442;28;19976;-65
2023/05/22 05:12:38;;;;;;;;;;;;;;;-142.75;100.00;76601.78;5091019;28;20396;-67
2023/05/22 05:15:03;;;;;;;;;;;;;;;-142.75;100.00;76611.63;5093962;28;19916;-66
2023/05/22 05:17:29;;;;;;;;;;;;;;;-142.75;100.00;76591.94;5094309;28;19916;-66
2023/05/22 05:19:54;;;;;;;;;;;;;;;-142.75;100.00;76597.84;5086086;28;19916;-66
2023/05/22 05:22:19;;;;;;;;;;;;;;;-142.75;100.00;76601.78;5085858;28;19916;-66
2023/05/22 05:24:45;;;;;;;;;;;;;;;-142.75;100.00;76597.84;5094038;28;19920;-67
2023/05/22 05:27:10;;;;;;;;;;;;;;;-142.75;100.00;76586.03;5090409;28;19961;-66
2023/05/22 05:29:35;;;;;;;;;;;;;;;-142.75;100.00;76593.91;5094387;28;19981;-66
2023/05/22 05:32:00;;;;;;;;;;;;;;;-142.75;100.00;76589.97;5087801;28;19916;-66
2023/05/22 05:34:26;;;;;;;;;;;;;;;-142.75;100.00;76597.84;5092378;28;19916;-67
2023/05/22 05:36:51;;;;;;;;;;;;;;;-142.75;100.00;76586.03;5086808;28;19916;-67
2023/05/22 05:39:16;;;;;;;;;;;;;;;-142.75;100.00;76576.19;5091978;28;19991;-68
2023/05/22 05:41:41;;;;;;;;;;;;;;;-142.75;100.00;76578.16;5086881;28;19916;-70
2023/05/22 05:44:07;;;;;;;;;;;;;;;-142.75;100.00;76562.41;5085497;28;20436;-68
2023/05/22 05:46:32;;;;;;;;;;;;;;;-142.75;100.00;76574.22;5087109;28;19997;-67
2023/05/22 05:48:57;;;;;;;;;;;;;;;-142.75;100.00;76572.25;5085673;28;19984;-69
2023/05/22 05:51:22;;;;;;;;;;;;;;;-142.75;100.00;76566.34;5086694;28;19923;-68
2023/05/22 05:53:48;;;;;;;;;;;;;;;-142.75;100.00;76586.03;5096656;28;19916;-68
2023/05/22 05:56:13;;;;;;;;;;;;;;;-142.75;100.00;76582.09;5094839;28;19915;-67
2023/05/22 05:58:39;;;;;;;;;;;;;;;-142.75;100.00;76570.28;5095137;28;19950;-65
2023/05/22 06:01:04;;;;;;;;;;;;;;;-142.75;100.00;76558.47;5089128;28;19920;-66
2023/05/22 06:03:29;;;;;;;;;;;;;;;-142.75;100.00;76546.66;5091883;28;19955;-66
2023/05/22 06:05:56;;;;;;;;;;;;;;;-142.75;100.00;76546.66;5088408;28;19916;-66
2023/05/22 06:08:21;;;;;;;;;;;;;;;-142.75;100.00;76550.59;5100249;28;20383;-67
2023/05/22 06:10:47;;;;;;;;;;;;;;;-142.75;100.00;76550.59;5090698;28;19916;-67
2023/05/22 06:13:12;;;;;;;;;;;;;;;-142.75;100.00;76530.91;5090631;28;19915;-67
2023/05/22 06:15:38;;;;;;;;;;;;;;;-142.75;100.00;76515.19;5092053;28;20436;-67
2023/05/22 06:18:03;;;;;;;;;;;;;;;-142.75;100.00;76507.31;5091921;28;20010;-65
2023/05/22 06:20:29;;;;;;;;;;;;;;;-142.75;100.00;76483.69;5090656;28;19951;-66
2023/05/22 06:22:54;;;;;;;;;;;;;;;-142.75;100.00;76487.63;5095410;28;20443;-70
2023/05/22 06:25:19;;;;;;;;;;;;;;;-142.75;100.00;76464.00;5095638;28;19924;-66
2023/05/22 06:27:45;;;;;;;;;;;;;;;-142.75;100.00;76456.13;5098522;28;20021;-66
2023/05/22 06:30:11;;;;;;;;;;;;;;;-142.75;100.00;76448.25;5101566;28;20405;-67
2023/05/22 06:32:36;;;;;;;;;;;;;;;-142.75;100.00;76446.28;5091355;28;20410;-67
2023/05/22 06:35:01;;;;;;;;;;;;;;;-142.75;100.00;76454.16;5096462;28;19916;-67
2023/05/22 06:37:27;;;;;;;;;;;;;;;-142.75;100.00;76475.81;5096117;28;19961;-67
2023/05/22 06:39:52;;;;;;;;;;;;;;;-142.75;100.00;76464.00;5095462;28;19924;-67
2023/05/22 06:42:17;;;;;;;;;;;;;;;-142.75;100.00;76464.00;5095592;28;19923;-70
2023/05/22 06:44:42;;;;;;;;;;;;;;;-142.75;100.00;76454.16;5091028;28;19953;-67
2023/05/22 06:47:08;;;;;;;;;;;;;;;-142.75;100.00;76430.53;5093608;28;19928;-67
2023/05/22 06:49:33;;;;;;;;;;;;;;;-142.75;100.00;76436.44;5091911;28;19920;-66
2023/05/22 06:51:58;;;;;;;;;;;;;;;-142.75;100.00;76436.44;5091052;28;19922;-69
2023/05/22 06:54:27;;;;;;;;;;;;;;;-142.75;100.00;76432.50;5088161;28;19937;-69
2023/05/22 06:56:52;;;;;;;;;;;;;;;-142.75;100.00;76416.75;5089296;28;19955;-65
2023/05/22 06:59:19;;;;;;;;;;;;;;;-142.75;100.00;76408.88;5091819;28;19951;-68
2023/05/22 07:01:44;;;;;;;;;;;;;;;-142.75;100.00;76406.91;5087773;28;19923;-68
2023/05/22 07:04:10;;;;;;;;;;;;;;;-142.75;100.00;76361.63;5088251;28;19924;-70
2023/05/22 07:06:37;;;;;;;;;;;;;;;-142.75;100.00;76353.78;5097262;28;20379;-68
2023/05/22 07:09:06;;;;;;;;;;;;;;;-142.75;100.00;76353.78;5097505;28;19920;-67
2023/05/22 07:11:31;;;;;;;;;;;;;;;-142.75;100.00;76361.63;5091537;28;19915;-68
2023/05/22 07:13:57;;;;;;;;;;;;;;;-142.75;100.00;76349.81;5091388;28;19916;-66
2023/05/22 07:16:22;;;;;;;;;;;;;;;-142.75;100.00;76338.03;5085300;28;19924;-67
2023/05/22 07:18:47;;;;;;;;;;;;;;;-142.75;100.00;76353.78;5095567;28;20379;-66
2023/05/22 07:21:13;;;;;;;;;;;;;;;-142.75;100.00;76349.81;5084174;28;20018;-69
2023/05/22 07:23:38;;;;;;;;;;;;;;;-142.75;100.00;76361.63;5086737;28;19942;-66
2023/05/22 07:26:03;;;;;;;;;;;;;;;-142.75;100.00;76351.81;5091995;28;20303;-67
2023/05/22 07:28:28;;;;;;;;;;;;;;;-142.75;100.00;76326.22;5084124;28;19927;-67
2023/05/22 07:30:54;;;;;;;;;;;;;;;-142.75;100.00;76304.56;5097306;28;19916;-66
2023/05/22 07:33:19;;;;;;;;;;;;;;;-142.75;100.00;76261.25;5097341;28;20302;-68
2023/05/22 07:35:45;;;;;;;;;;;;;;;-142.75;100.00;76225.81;5088542;28;19923;-66
2023/05/22 07:38:10;;;;;;;;;;;;;;;-142.75;100.00;76208.09;5088623;28;19923;-66
2023/05/22 07:40:35;;;;;;;;;;;;;;;-142.75;100.00;76198.28;5093800;28;20353;-65
2023/05/22 07:43:00;;;;;;;;;;;;;;;-142.75;100.00;76200.25;5088614;28;19955;-66
2023/05/22 07:45:25;;;;;;;;;;;;;;;-142.75;100.00;76172.69;5088148;28;20053;-67
2023/05/22 07:47:51;;;;;;;;;;;;;;;-142.75;100.00;76180.56;5085684;28;20537;-69
2023/05/22 07:50:16;;;;;;;;;;;;;;;-142.75;100.00;76149.06;5088008;28;20498;-65
2023/05/22 07:52:42;;;;;;;;;;;;;;;-142.75;100.00;76133.31;5096415;28;19950;-72
2023/05/22 07:55:08;;;;;;;;;;;;;;;-142.75;100.00;76109.69;5089744;28;19923;-68
2023/05/22 07:57:35;;;;;;;;;;;;;;;-142.75;100.00;76088.03;5095731;28;19916;-67
2023/05/22 08:00:11;;;;;;;;;;;;;;;-142.75;100.00;76086.06;5086870;28;20445;-68
2023/05/22 08:02:36;;;;;;;;;;;;;;;-142.75;100.00;76062.47;5098466;28;19963;-69
2023/05/22 08:05:03;;;;;;;;;;;;;;;-142.75;100.00;76034.91;5096174;28;20009;-70
2023/05/22 08:07:28;;;;;;;;;;;;;;;-142.75;100.00;76036.88;5091188;28;19961;-68
2023/05/22 08:09:53;;;;;;;;;;;;;;;-142.75;100.00;76023.09;5103400;28;19924;-68
2023/05/22 08:12:18;;;;;;;;;;;;;;;-142.75;100.00;75995.53;5088417;28;19970;-70
2023/05/22 08:14:43;;;;;;;;;;;;;;;-142.75;100.00;76029.00;5095563;28;19916;-67
2023/05/22 08:17:09;;;;;;;;;;;;;;;-142.75;100.00;75967.97;5096985;28;19970;-68
2023/05/22 08:19:34;;;;;;;;;;;;;;;-142.75;100.00;75936.50;5096324;28;19916;-70
2023/05/22 08:22:00;;;;;;;;;;;;;;;-142.75;100.00;75906.97;5090799;28;19924;-70
2023/05/22 08:24:27;;;;;;;;;;;;;;;-142.75;100.00;75889.25;5091519;28;19956;-68
2023/05/22 08:26:52;;;;;;;;;;;;;;;-142.75;100.00;75883.34;5099035;28;19923;-68
2023/05/22 08:29:18;;;;;;;;;;;;;;;-142.75;100.00;75910.91;5088092;28;19920;-70
2023/05/22 08:31:43;;;;;;;;;;;;;;;-142.75;100.00;75879.41;5090077;28;19963;-68
2023/05/22 08:34:09;;;;;;;;;;;;;;;-142.75;100.00;75849.91;5092167;28;19916;-70
2023/05/22 08:36:34;;;;;;;;;;;;;;;-142.75;100.00;75840.06;5091643;28;19924;-68
2023/05/22 08:39:00;;;;;;;;;;;;;;;-142.75;100.00;75845.97;5100609;28;19985;-68
2023/05/22 08:41:25;;;;;;;;;;;;;;;-142.75;100.00;75818.41;5088342;28;19920;-68
2023/05/22 08:43:51;;;;;;;;;;;;;;;-142.75;100.00;75790.84;5093682;28;19952;-68
2023/05/22 08:46:18;;;;;;;;;;;;;;;-142.75;100.00;75781.00;5095518;28;19923;-68
2023/05/22 08:48:44;;;;;;;;;;;;;;;-142.75;100.00;75771.16;5095470;28;19920;-68
2023/05/22 08:51:12;;;;;;;;;;;;;;;-142.75;100.00;75757.41;5100710;28;19916;-69
2023/05/22 08:53:37;;;;;;;;;;;;;;;-142.75;100.00;75727.88;5088135;28;19931;-68
2023/05/22 08:56:07;;;;;;;;;;;;;;;-142.75;100.00;75723.94;5087634;28;20393;-68
2023/05/22 08:58:33;;;;;;;;;;;;;;;-142.75;100.00;75696.38;5089868;28;19923;-69
2023/05/22 09:00:58;;;;;;;;;;;;;;;-142.75;100.00;75692.44;5092912;28;19924;-71
2023/05/22 09:03:27;;;;;;;;;;;;;;;-142.75;100.00;75653.09;5090433;28;19916;-69
2023/05/22 09:05:52;;;;;;;;;;;;;;;-142.75;100.00;75668.84;5092223;28;19959;-70
2023/05/22 09:08:17;;;;;;;;;;;;;;;-142.75;100.00;75668.84;5094202;28;20390;-68
2023/05/22 09:10:42;;;;;;;;;;;;;;;-142.75;100.00;75670.81;5088445;28;20046;-69
2023/05/22 09:13:08;;;;;;;;;;;;;;;-142.75;100.00;75651.13;5087536;28;19941;-68
2023/05/22 09:15:34;;;;;;;;;;;;;;;-142.75;100.00;75672.78;5087642;28;20394;-69
2023/05/22 09:18:01;;;;;;;;;;;;;;;-142.75;99.30;75692.44;5096029;28;19915;-68
2023/05/22 09:20:26;;;;;;;;;;;;;;;-142.75;100.00;75672.78;5089817;28;19920;-68
2023/05/22 09:22:51;;;;;;;;;;;;;;;-142.75;100.00;75664.91;5094010;28;20299;-69
2023/05/22 09:25:18;;;;;;;;;;;;;;;-142.75;99.27;75643.25;5087301;28;20002;-69
2023/05/22 09:27:49;;;;;;;;;;;;;;;-142.75;99.54;75649.16;5093570;28;19941;-68
2023/05/22 09:30:16;;;;;;;;;;;;;;;-142.75;100.00;75599.94;5085957;28;19920;-69
2023/05/22 09:32:41;;;;;;;;;;;;;;;-142.75;99.49;75601.91;5089090;28;20409;-68
2023/05/22 09:35:07;;;;;;;;;;;;;;;-142.75;96.13;75570.44;5088995;28;19917;-68
2023/05/22 09:37:34;;;;;;;;;;;;;;;-142.75;94.24;75554.69;5086930;28;19920;-69
2023/05/22 09:40:02;;;;;;;;;;;;;;;-142.75;92.14;75538.94;5096297;28;19915;-69
2023/05/22 09:42:27;;;;;;;;;;;;;;;-142.75;91.80;75519.25;5100578;28;19923;-69
2023/05/22 09:44:53;;;;;;;;;;;;;;;-142.75;93.87;75509.44;5098315;28;19924;-69
2023/05/22 09:47:18;;;;;;;;;;;;;;;-142.75;94.27;75487.78;5094006;28;19916;-70
2023/05/22 09:49:44;;;;;;;;;;;;;;;-142.75;94.76;75499.59;5094086;28;19920;-68
2023/05/22 09:52:11;;;;;;;;;;;;;;;-142.75;90.35;75483.84;5096534;28;19923;-70
2023/05/22 09:54:40;;;;;;;;;;;;;;;-142.75;90.27;75487.78;5092611;28;20299;-68
2023/05/22 09:57:07;;;;;;;;;;;;;;;-142.75;91.87;75487.78;5092479;28;20020;-69
2023/05/22 09:59:33;;;;;;;;;;;;;;;-142.75;90.84;75472.03;5096953;28;19998;-69
2023/05/22 10:02:00;;;;;;;;;;;;;;;-142.75;92.38;75483.84;5092461;28;19962;-68
2023/05/22 10:04:27;;;;;;;;;;;;;;;-142.75;93.67;75466.13;5098631;28;20040;-69
2023/05/22 10:06:54;;;;;;;;;;;;;;;-142.75;91.00;75450.38;5091159;28;19948;-68
2023/05/22 10:09:22;;;;;;;;;;;;;;;-142.75;91.58;75464.16;5092795;28;19939;-68
2023/05/22 10:11:48;;;;;;;;;;;;;;;-142.75;90.74;75466.13;5097125;28;19927;-68
2023/05/22 10:14:14;;;;;;;;;;;;;;;-142.75;87.22;75472.03;5098964;28;19916;-68
2023/05/22 10:16:40;;;;;;;;;;;;;;;-142.75;90.36;75432.69;5097275;28;19936;-69
2023/05/22 10:19:07;;;;;;;;;;;;;;;-142.75;86.83;75434.66;5089262;28;19919;-69
2023/05/22 10:21:32;;;;;;;;;;;;;;;-142.75;87.52;75460.22;5094238;28;19916;-68
2023/05/22 10:23:58;;;;;;;;;;;;;;;-142.75;89.47;75424.81;5090776;28;19923;-68
2023/05/22 10:26:24;;;;;;;;;;;;;;;-142.75;86.39;75377.56;5099826;28;19915;-68
2023/05/22 10:28:59;;;;;;;;;;;;;;;-142.75;86.20;75346.09;5098166;28;20006;-67
2023/05/22 10:31:36;;;;;;;;;;;;;;;-142.75;83.05;75324.44;5097358;28;19915;-70
2023/05/22 10:34:05;;;;;;;;;;;;;;;-142.75;83.32;75328.38;5089853;28;19955;-68
2023/05/22 10:36:50;;;;;;;;;;;;;;;-142.75;84.63;75302.78;5090593;28;19993;-68
2023/05/22 10:39:15;;;;;;;;;;;;;;;-142.75;82.68;75302.78;5100551;28;19915;-68
2023/05/22 10:41:40;;;;;;;;;;;;;;;-142.75;84.34;75330.34;5093969;28;20379;-69
2023/05/22 10:44:05;;;;;;;;;;;;;;;-142.75;82.02;75318.53;5098543;28;19947;-69
2023/05/22 10:46:32;;;;;;;;;;;;;;;-142.75;83.08;75332.31;5094813;28;19959;-69
2023/05/22 10:48:57;;;;;;;;;;;;;;;-142.75;84.23;75338.22;5089490;28;19921;-69
2023/05/22 10:51:23;;;;;;;;;;;;;;;-142.75;81.95;75306.72;5089910;28;19916;-70
2023/05/22 10:53:56;;;;;;;;;;;;;;;-142.75;81.05;75304.75;5097478;28;19923;-70
2023/05/22 10:56:21;;;;;;;;;;;;;;;-142.75;82.54;75285.09;5094651;28;20003;-68
2023/05/22 10:58:57;;;;;;;;;;;;;;;-142.75;84.08;75298.84;5090341;28;20006;-68
2023/05/22 11:01:24;;;;;;;;;;;;;;;-142.75;83.14;75291.00;5094205;28;19963;-69
2023/05/22 11:03:50;;;;;;;;;;;;;;;-142.75;84.83;75310.66;5089712;28;20382;-71
2023/05/22 11:06:34;;;;;;;;;;;;;;;-142.75;82.78;75263.44;5092816;28;19916;-69
2023/05/22 11:09:15;;;;;;;;;;;;;;;-142.75;83.41;75281.16;5101458;28;19920;-68
2023/05/22 11:11:41;;;;;;;;;;;;;;;-142.75;84.38;75304.75;5101023;28;19916;-70
2023/05/22 11:14:06;;;;;;;;;;;;;;;-142.75;87.89;75365.75;5097078;28;19924;-69
2023/05/22 11:16:32;;;;;;;;;;;;;;;-142.75;85.53;75340.19;5095548;28;20007;-68
2023/05/22 11:19:04;;;;;;;;;;;;;;;-142.75;83.84;75332.31;5095904;28;19924;-69
2023/05/22 11:21:29;;;;;;;;;;;;;;;-142.75;85.33;75281.16;5092390;28;19916;-69
2023/05/22 11:23:58;;;;;;;;;;;;;;;-142.75;82.69;75243.75;5090673;28;20457;-70
2023/05/22 11:26:23;;;;;;;;;;;;;;;-142.75;83.48;75243.75;5096000;28;19951;-68
2023/05/22 11:28:50;;;;;;;;;;;;;;;-142.75;82.29;75204.41;5098705;28;20306;-70
2023/05/22 11:31:15;;;;;;;;;;;;;;;-142.75;79.79;75165.03;5090062;28;19935;-70
2023/05/22 11:33:41;;;;;;;;;;;;;;;-142.75;80.04;75174.88;5098946;28;19916;-70
2023/05/22 11:36:07;;;;;;;;;;;;;;;-142.75;81.66;75188.66;5093126;28;19923;-70
2023/05/22 11:38:33;;;;;;;;;;;;;;;-142.75;78.84;75182.75;5087902;28;20318;-71
2023/05/22 11:40:58;;;;;;;;;;;;;;;-142.75;78.68;75196.53;5091449;28;19931;-67
2023/05/22 11:43:27;;;;;;;;;;;;;;;-142.75;81.45;75176.84;5089952;28;19942;-71
2023/05/22 11:45:52;;;;;;;;;;;;;;;-142.75;78.13;75200.47;5087821;28;19923;-69
2023/05/22 11:48:19;;;;;;;;;;;;;;;-142.75;79.92;75165.03;5096571;28;19919;-69
2023/05/22 11:50:44;;;;;;;;;;;;;;;-142.75;80.54;75198.50;5090987;28;19916;-71
2023/05/22 11:53:09;;;;;;;;;;;;;;;-142.75;79.11;75165.03;5091109;28;20097;-68
2023/05/22 11:55:34;;;;;;;;;;;;;;;-142.75;79.14;75161.13;5093757;28;19926;-70
2023/05/22 11:58:01;;;;;;;;;;;;;;;-142.75;78.68;75165.03;5088503;28;19963;-68
2023/05/22 12:00:28;;;;;;;;;;;;;;;-142.75;78.13;75149.31;5088942;28;20423;-69
2023/05/22 12:02:53;;;;;;;;;;;;;;;-142.75;79.74;75180.78;5091915;28;20003;-70
2023/05/22 12:05:19;;;;;;;;;;;;;;;-142.75;78.82;75153.25;5087427;28;20011;-68
2023/05/22 12:07:44;;;;;;;;;;;;;;;-142.75;78.78;75125.69;5094480;28;19916;-68
2023/05/22 12:10:09;;;;;;;;;;;;;;;-142.75;78.32;75237.84;5089442;28;19927;-70
2023/05/22 12:12:35;;;;;;;;;;;;;;;-142.75;81.72;75281.16;5092015;28;20107;-69
2023/05/22 12:15:03;;;;;;;;;;;;;;;-142.75;83.14;75275.25;5088154;28;19916;-66